createdAt,value
2023-03-27T00:00:21.052Z,97228.19
2023-03-27T00:01:20.756Z,97229.17
2023-03-27T00:02:20.651Z,97224.3
2023-03-27T00:03:20.675Z,97228.45
2023-03-27T00:04:20.567Z,97228.86
2023-03-27T00:05:21.006Z,97224.35
2023-03-27T00:06:20.904Z,97224.3
2023-03-27T00:07:20.672Z,97223.12
2023-03-27T00:08:20.591Z,97224.86
2023-03-27T00:09:20.801Z,97222.64
2023-03-27T00:10:20.730Z,97226.28
2023-03-27T00:11:21.245Z,97223.98
2023-03-27T00:12:20.704Z,97221.38
2023-03-27T00:13:20.948Z,97223.88
2023-03-27T00:14:20.707Z,97223.2
2023-03-27T00:15:21.387Z,97225.66
2023-03-27T00:16:21.995Z,97223.49
2023-03-27T00:17:20.742Z,97222.88
2023-03-27T00:18:20.808Z,97219.97
2023-03-27T00:19:21.170Z,97219.2
2023-03-27T00:20:22.454Z,97215.34
2023-03-27T00:21:21.000Z,97215.43
2023-03-27T00:22:20.817Z,97212.28
2023-03-27T00:23:20.887Z,97212.12
2023-03-27T00:24:20.847Z,97210.15
2023-03-27T00:25:21.564Z,97210.59
2023-03-27T00:26:20.924Z,97208.74
2023-03-27T00:27:20.969Z,97206.58
2023-03-27T00:28:20.970Z,97202.97
2023-03-27T00:29:20.930Z,97205.62
2023-03-27T00:30:22.092Z,97203.89
2023-03-27T00:31:21.501Z,97199.14
2023-03-27T00:32:21.465Z,97197.17
2023-03-27T00:33:21.783Z,97193.96
2023-03-27T00:34:21.466Z,97195.78
2023-03-27T00:35:22.358Z,97198.01
2023-03-27T00:36:21.559Z,97196.04
2023-03-27T00:37:21.770Z,97195.39
2023-03-27T00:38:21.557Z,97201.18
2023-03-27T00:39:21.619Z,97194.1
2023-03-27T00:40:21.590Z,97197.41
2023-03-27T00:41:22.145Z,97190.54
2023-03-27T00:42:22.228Z,97191.47
2023-03-27T00:43:23.452Z,97192.97
2023-03-27T00:44:29.562Z,97198.1
2023-03-27T00:45:31.524Z,97191.8
2023-03-27T00:46:32.828Z,97196.12
2023-03-27T00:47:31.365Z,97197.45
2023-03-27T00:48:31.127Z,97191.83
2023-03-27T00:49:31.596Z,97193.47
2023-03-27T00:50:34.317Z,97191.45
2023-03-27T00:51:30.889Z,97188.52
2023-03-27T00:52:31.137Z,97185
2023-03-27T00:53:30.839Z,97188.06
2023-03-27T00:54:33.389Z,97185.91
2023-03-27T00:55:32.720Z,97190.7
2023-03-27T00:56:30.710Z,97187.1
2023-03-27T00:57:30.879Z,97188.91
2023-03-27T00:58:38.504Z,97187.34
2023-03-27T00:59:38.964Z,97185.08
2023-03-27T01:00:35.841Z,97184.12
2023-03-27T01:01:36.032Z,97186.84
2023-03-27T01:02:35.336Z,97183.34
2023-03-27T01:03:35.381Z,97182.34
2023-03-27T01:04:36.439Z,97182.42
2023-03-27T01:05:36.335Z,97180.85
2023-03-27T01:06:35.734Z,97179.37
2023-03-27T01:07:36.452Z,97184.48
2023-03-27T01:08:35.364Z,97182.04
2023-03-27T01:09:35.332Z,97185.49
2023-03-27T01:15:58.759Z,97179.61
2023-03-27T01:26:14.262Z,97171.81
2023-03-27T01:30:18.642Z,97171.88
2023-03-27T01:39:47.676Z,97177.49
2023-03-27T01:40:57.752Z,97181.06
2023-03-27T01:46:00.570Z,97183.44
2023-03-27T01:47:02.031Z,97179.12
2023-03-27T01:48:02.797Z,97181.67
2023-03-27T01:49:08.209Z,97178.8
2023-03-27T01:50:08.635Z,97178.89
2023-03-27T01:52:04.514Z,97182.09
2023-03-27T01:53:04.923Z,97183.14
2023-03-27T01:54:11.426Z,97181.06
2023-03-27T01:55:10.874Z,97180.09
2023-03-27T01:56:16.101Z,97180.8
2023-03-27T01:58:19.026Z,97188.66
2023-03-27T01:59:18.029Z,97181.86
2023-03-27T02:00:19.891Z,97185.23
2023-03-27T02:01:20.765Z,97190.91
2023-03-27T02:02:24.406Z,97189.67
2023-03-27T02:03:24.166Z,97189.53
2023-03-27T02:04:24.545Z,97191.19
2023-03-27T02:06:28.577Z,97191.04
2023-03-27T02:07:28.760Z,97192.38
2023-03-27T02:08:36.412Z,97194.11
2023-03-27T02:09:36.945Z,97190.36
2023-03-27T02:10:31.686Z,97186.42
2023-03-27T02:11:30.681Z,97184.2
2023-03-27T02:12:33.124Z,97185.09
2023-03-27T02:13:37.241Z,97188.67
2023-03-27T02:14:39.178Z,97186.17
2023-03-27T02:15:40.107Z,97187.43
2023-03-27T02:16:40.137Z,97187.13
2023-03-27T02:17:39.750Z,97183.98
2023-03-27T02:18:38.504Z,97184.68
2023-03-27T02:19:39.723Z,97187.25
2023-03-27T02:20:38.110Z,97185.67
2023-03-27T02:21:37.160Z,97185.58
2023-03-27T02:22:40.193Z,97186.95
2023-03-27T02:23:37.029Z,97182.28
2023-03-27T02:24:37.079Z,97180.14
2023-03-27T02:25:38.466Z,97184.31
2023-03-27T02:26:37.647Z,97185.8
2023-03-27T02:27:45.928Z,97189.24
2023-03-27T02:46:31.769Z,97191.01
2023-03-27T02:47:33.246Z,97193
2023-03-27T02:48:32.851Z,97194.18
2023-03-27T02:49:33.833Z,97196.61
2023-03-27T02:50:34.019Z,97195.53
2023-03-27T02:52:36.349Z,97192.44
2023-03-27T02:53:36.992Z,97190.69
2023-03-27T02:54:36.385Z,97196.09
2023-03-27T02:55:42.592Z,97193.86
2023-03-27T02:56:36.919Z,97191.57
2023-03-27T02:57:36.296Z,97193.62
2023-03-27T02:58:37.082Z,97194.56
2023-03-27T02:59:38.251Z,97194.08
2023-03-27T03:00:38.382Z,97188.95
2023-03-27T03:01:36.394Z,97193.04
2023-03-27T03:02:35.520Z,97189.78
2023-03-27T03:04:40.642Z,97195.17
2023-03-27T03:05:37.688Z,97194.55
2023-03-27T03:06:37.781Z,97192.11
2023-03-27T03:07:37.734Z,97192.3
2023-03-27T03:08:38.583Z,97193.17
2023-03-27T03:09:40.343Z,97192.19
2023-03-27T03:10:44.476Z,97193.76
2023-03-27T03:11:51.156Z,97192.18
2023-03-27T03:12:42.843Z,97191.47
2023-03-27T03:13:42.818Z,97193.58
2023-03-27T03:14:43.490Z,97195.65
2023-03-27T03:15:43.595Z,97188.56
2023-03-27T03:16:42.962Z,97187.2
2023-03-27T03:17:43.005Z,97190.75
2023-03-27T03:18:42.919Z,97184.41
2023-03-27T03:19:42.949Z,97187.23
2023-03-27T03:20:42.932Z,97184.22
2023-03-27T03:21:43.015Z,97184.89
2023-03-27T03:22:42.992Z,97184.09
2023-03-27T03:23:42.979Z,97187.38
2023-03-27T03:24:45.382Z,97187.88
2023-03-27T03:25:45.328Z,97180.82
2023-03-27T03:26:45.381Z,97176.9
2023-03-27T03:27:45.396Z,97177.36
2023-03-27T03:29:01.329Z,97177.53
2023-03-27T03:29:48.374Z,97183.25
2023-03-27T03:30:48.730Z,97184.02
2023-03-27T03:31:48.433Z,97183.25
2023-03-27T03:32:48.478Z,97185.54
2023-03-27T03:33:48.473Z,97181.77
2023-03-27T03:34:48.446Z,97181.06
2023-03-27T03:35:49.571Z,97183.85
2023-03-27T03:36:48.625Z,97184.36
2023-03-27T03:37:50.702Z,97182.82
2023-03-27T03:38:48.646Z,97182.66
2023-03-27T03:39:48.547Z,97186.48
2023-03-27T03:40:48.567Z,97182.66
2023-03-27T03:41:48.669Z,97184.12
2023-03-27T03:42:50.325Z,97184.56
2023-03-27T03:43:48.756Z,97183.9
2023-03-27T03:44:48.718Z,97180.59
2023-03-27T03:45:49.299Z,97182.49
2023-03-27T03:46:48.696Z,97182.18
2023-03-27T03:47:48.750Z,97186.45
2023-03-27T03:48:48.783Z,97189.66
2023-03-27T03:49:48.757Z,97186.31
2023-03-27T03:50:49.085Z,97186.91
2023-03-27T03:52:03.545Z,97188.17
2023-03-27T03:52:51.351Z,97188.16
2023-03-27T03:53:51.678Z,97186.81
2023-03-27T03:54:51.405Z,97188.95
2023-03-27T03:55:52.090Z,97191.46
2023-03-27T03:56:51.434Z,97192.61
2023-03-27T03:57:51.428Z,97191.34
2023-03-27T03:58:51.519Z,97196.36
2023-03-27T03:59:51.413Z,97188.93
2023-03-27T04:00:53.430Z,97191.8
2023-03-27T04:01:51.700Z,97195.28
2023-03-27T04:02:52.712Z,97194.17
2023-03-27T04:03:51.590Z,97193.54
2023-03-27T04:04:51.524Z,97190.52
2023-03-27T04:05:51.582Z,97191.91
2023-03-27T04:06:51.622Z,97191.63
2023-03-27T04:07:51.844Z,97189.56
2023-03-27T04:08:52.437Z,97192.33
2023-03-27T04:09:51.632Z,97189.75
2023-03-27T04:10:51.635Z,97192.51
2023-03-27T04:11:51.678Z,97191.61
2023-03-27T04:12:51.741Z,97189.65
2023-03-27T04:13:51.824Z,97194.52
2023-03-27T04:14:51.777Z,97192.87
2023-03-27T04:15:51.796Z,97194.83
2023-03-27T04:16:51.751Z,97194.85
2023-03-27T04:17:51.780Z,97197.29
2023-03-27T04:18:52.046Z,97199.86
2023-03-27T04:19:54.746Z,97200.39
2023-03-27T04:20:51.814Z,97197.27
2023-03-27T04:21:51.822Z,97195.03
2023-03-27T04:22:54.184Z,97196.75
2023-03-27T04:23:52.071Z,97197
2023-03-27T04:24:52.249Z,97196.25
2023-03-27T04:25:51.959Z,97195.27
2023-03-27T04:26:51.901Z,97194.47
2023-03-27T04:27:51.935Z,97195.89
2023-03-27T04:28:52.946Z,97196.7
2023-03-27T04:29:51.953Z,97199.83
2023-03-27T04:30:52.006Z,97197.2
2023-03-27T04:31:52.166Z,97197.71
2023-03-27T04:32:52.656Z,97193.66
2023-03-27T04:33:52.262Z,97197.19
2023-03-27T04:34:52.429Z,97196.55
2023-03-27T04:36:06.913Z,97195.55
2023-03-27T04:36:54.421Z,97194.67
2023-03-27T04:37:54.424Z,97197.45
2023-03-27T04:38:54.484Z,97191.92
2023-03-27T04:39:54.487Z,97196.78
2023-03-27T04:40:55.116Z,97196.98
2023-03-27T04:41:54.597Z,97197.65
2023-03-27T04:42:54.532Z,97196.5
2023-03-27T04:43:55.084Z,97195.06
2023-03-27T04:44:54.621Z,97195.2
2023-03-27T04:45:54.700Z,97193.86
2023-03-27T04:46:54.590Z,97191.62
2023-03-27T04:47:54.748Z,97189.94
2023-03-27T04:48:54.567Z,97190.22
2023-03-27T04:49:54.618Z,97189.84
2023-03-27T04:50:55.018Z,97191.36
2023-03-27T04:51:55.184Z,97190.22
2023-03-27T04:52:54.843Z,97188.94
2023-03-27T04:53:55.038Z,97192.27
2023-03-27T04:54:54.703Z,97190.09
2023-03-27T04:55:54.736Z,97190.34
2023-03-27T04:56:54.894Z,97193
2023-03-27T04:57:54.898Z,97193.47
2023-03-27T04:58:54.851Z,97191.63
2023-03-27T04:59:54.789Z,97198.33
2023-03-27T05:00:55.684Z,97197.34
2023-03-27T05:01:54.827Z,97194.98
2023-03-27T05:02:54.878Z,97199.05
2023-03-27T05:03:54.905Z,97195.63
2023-03-27T05:04:55.040Z,97194.99
2023-03-27T05:05:55.197Z,97192.44
2023-03-27T05:06:56.249Z,97190.14
2023-03-27T05:07:54.867Z,97191.92
2023-03-27T05:08:54.911Z,97190.72
2023-03-27T05:09:54.914Z,97195.36
2023-03-27T05:10:55.177Z,97192.11
2023-03-27T05:11:54.915Z,97195.88
2023-03-27T05:12:57.873Z,97193.38
2023-03-27T05:13:55.126Z,97191.32
2023-03-27T05:14:55.129Z,97198
2023-03-27T05:15:55.325Z,97197.09
2023-03-27T05:16:55.084Z,97199.35
2023-03-27T05:17:55.270Z,97200.49
2023-03-27T05:18:55.184Z,97201.97
2023-03-27T05:19:55.192Z,97201.15
2023-03-27T05:20:55.535Z,97200.77
2023-03-27T05:21:55.206Z,97203.34
2023-03-27T05:22:55.880Z,97200.23
2023-03-27T05:23:55.236Z,97203.15
2023-03-27T05:24:55.309Z,97203.61
2023-03-27T05:25:59.632Z,97203.91
2023-03-27T05:26:57.540Z,97203.04
2023-03-27T05:27:57.544Z,97204.12
2023-03-27T05:28:57.645Z,97203.73
2023-03-27T05:29:57.524Z,97208.17
2023-03-27T05:30:58.026Z,97207.02
2023-03-27T05:31:59.489Z,97208.77
2023-03-27T05:32:57.682Z,97212.64
2023-03-27T05:33:57.646Z,97210.65
2023-03-27T05:34:57.573Z,97213.56
2023-03-27T05:35:59.703Z,97214.66
2023-03-27T05:36:57.623Z,97216.45
2023-03-27T05:37:57.648Z,97219.06
2023-03-27T05:38:57.753Z,97218.8
2023-03-27T05:39:57.650Z,97221.11
2023-03-27T05:40:57.835Z,97220.69
2023-03-27T05:41:57.754Z,97222.88
2023-03-27T05:42:57.761Z,97220.63
2023-03-27T05:43:57.658Z,97223.17
2023-03-27T05:44:57.892Z,97221.98
2023-03-27T05:45:57.764Z,97221.71
2023-03-27T05:46:58.106Z,97225.84
2023-03-27T05:47:59.242Z,97228.26
2023-03-27T05:48:57.777Z,97225.38
2023-03-27T05:49:57.750Z,97229.52
2023-03-27T05:50:58.049Z,97229.38
2023-03-27T05:51:57.753Z,97228.88
2023-03-27T05:52:59.084Z,97226.2
2023-03-27T05:53:57.952Z,97227.74
2023-03-27T05:54:57.906Z,97229.38
2023-03-27T05:56:02.903Z,97230.88
2023-03-27T05:57:00.370Z,97234.56
2023-03-27T05:58:00.220Z,97230.11
2023-03-27T05:59:00.189Z,97235.02
2023-03-27T06:00:00.241Z,97233.96
2023-03-27T06:01:00.412Z,97235.45
2023-03-27T06:02:00.220Z,97234.63
2023-03-27T06:03:01.394Z,97236.31
2023-03-27T06:04:00.369Z,97235.25
2023-03-27T06:05:00.272Z,97240.94
2023-03-27T06:06:00.431Z,97237.14
2023-03-27T06:07:00.303Z,97239.55
2023-03-27T06:08:00.324Z,97237.53
2023-03-27T06:09:00.672Z,97239.5
2023-03-27T06:10:00.364Z,97239.05
2023-03-27T06:11:00.346Z,97237.23
2023-03-27T06:12:00.397Z,97238.02
2023-03-27T06:13:04.418Z,97240.42
2023-03-27T06:14:01.126Z,97237.83
2023-03-27T06:15:01.099Z,97240.56
2023-03-27T06:16:01.483Z,97243.41
2023-03-27T06:17:01.052Z,97244.08
2023-03-27T06:18:01.244Z,97243.06
2023-03-27T06:19:01.136Z,97245.54
2023-03-27T06:20:01.133Z,97243.36
2023-03-27T06:21:01.151Z,97239.77
2023-03-27T06:22:01.244Z,97241.66
2023-03-27T06:23:01.932Z,97244.22
2023-03-27T06:24:01.407Z,97245.34
2023-03-27T06:25:01.312Z,97242.16
2023-03-27T06:26:01.261Z,97245.98
2023-03-27T06:27:01.256Z,97246.3
2023-03-27T06:28:01.811Z,97244.87
2023-03-27T06:29:01.498Z,97243.78
2023-03-27T06:30:05.393Z,97246.48
2023-03-27T06:31:05.490Z,97245.22
2023-03-27T06:32:05.120Z,97248.26
2023-03-27T06:33:05.420Z,97246.74
2023-03-27T06:34:04.963Z,97250.15
2023-03-27T06:35:05.303Z,97249.89
2023-03-27T06:36:05.537Z,97249.83
2023-03-27T06:37:05.002Z,97257.63
2023-03-27T06:38:05.511Z,97257.42
2023-03-27T06:39:05.086Z,97257.63
2023-03-27T06:40:05.602Z,97260.92
2023-03-27T06:41:05.308Z,97263.89
2023-03-27T06:42:05.027Z,97263.34
2023-03-27T06:43:06.494Z,97262
2023-03-27T06:44:05.111Z,97262.68
2023-03-27T06:45:05.639Z,97263.33
2023-03-27T06:46:05.618Z,97264.97
2023-03-27T06:47:05.143Z,97259.61
2023-03-27T06:48:13.775Z,97261.94
2023-03-27T06:49:05.808Z,97265.22
2023-03-27T06:50:06.485Z,97267.77
2023-03-27T06:51:06.041Z,97266.09
2023-03-27T06:52:07.269Z,97265.71
2023-03-27T06:53:15.853Z,97269.61
2023-03-27T06:54:10.640Z,97266.51
2023-03-27T06:55:14.977Z,97267.43
2023-03-27T06:56:12.077Z,97267.55
2023-03-27T06:57:12.136Z,97272.59
2023-03-27T06:58:12.414Z,97278.38
2023-03-27T06:59:12.081Z,97277.72
2023-03-27T07:00:13.394Z,97274.91
2023-03-27T07:01:12.228Z,97278.02
2023-03-27T07:02:12.455Z,97278.7
2023-03-27T07:03:12.371Z,97281.42
2023-03-27T07:04:12.204Z,97280.59
2023-03-27T07:05:12.681Z,97284.42
2023-03-27T07:06:12.262Z,97284.8
2023-03-27T07:07:12.186Z,97282.2
2023-03-27T07:08:21.689Z,97284.49
2023-03-27T07:09:14.718Z,97285.81
2023-03-27T07:10:14.931Z,97284.04
2023-03-27T07:11:14.972Z,97284.03
2023-03-27T07:12:14.695Z,97286.96
2023-03-27T07:13:14.733Z,97288.8
2023-03-27T07:14:14.804Z,97285.59
2023-03-27T07:15:15.084Z,97289.79
2023-03-27T07:16:14.935Z,97290.71
2023-03-27T07:17:14.919Z,97290.23
2023-03-27T07:18:14.859Z,97290.78
2023-03-27T07:19:14.920Z,97290.86
2023-03-27T07:20:14.858Z,97291.09
2023-03-27T07:21:14.867Z,97294.53
2023-03-27T07:22:14.979Z,97296.62
2023-03-27T07:23:14.840Z,97297.92
2023-03-27T07:24:14.902Z,97297.76
2023-03-27T07:25:15.058Z,97294.8
2023-03-27T07:26:14.901Z,97297.69
2023-03-27T07:27:14.926Z,97304.41
2023-03-27T07:28:14.991Z,97302.19
2023-03-27T07:29:15.443Z,97304.11
2023-03-27T07:30:15.227Z,97304.39
2023-03-27T07:31:32.516Z,97307.42
2023-03-27T07:32:29.717Z,97311.48
2023-03-27T07:33:17.911Z,97302.52
2023-03-27T07:34:17.467Z,97309.42
2023-03-27T07:35:17.508Z,97311.84
2023-03-27T07:36:17.466Z,97318.22
2023-03-27T07:37:17.403Z,97317.98
2023-03-27T07:38:18.298Z,97312.28
2023-03-27T07:39:17.489Z,97315.03
2023-03-27T07:40:19.923Z,97321.47
2023-03-27T07:41:18.035Z,97325.77
2023-03-27T07:42:18.084Z,97322.55
2023-03-27T07:43:18.055Z,97326.42
2023-03-27T07:44:18.609Z,97329.9
2023-03-27T07:45:18.735Z,97323.67
2023-03-27T07:46:18.159Z,97330.72
2023-03-27T07:47:18.137Z,97328.5
2023-03-27T07:48:18.119Z,97335.39
2023-03-27T07:49:18.300Z,97333.52
2023-03-27T07:50:20.585Z,97337.88
2023-03-27T07:51:18.149Z,97336.95
2023-03-27T07:52:18.308Z,97335.88
2023-03-27T07:53:33.362Z,97342.37
2023-03-27T07:54:21.392Z,97344.22
2023-03-27T07:55:21.418Z,97341.48
2023-03-27T07:56:22.236Z,97349.34
2023-03-27T07:57:21.491Z,97341.39
2023-03-27T07:58:21.409Z,97349.02
2023-03-27T07:59:21.470Z,97346.97
2023-03-27T08:00:22.219Z,97347.49
2023-03-27T08:01:21.434Z,97347.61
2023-03-27T08:02:21.522Z,97351.52
2023-03-27T08:03:21.610Z,97353.31
2023-03-27T08:04:21.530Z,97351.59
2023-03-27T08:05:21.783Z,97357.8
2023-03-27T08:06:21.702Z,97359.95
2023-03-27T08:07:21.551Z,97363.27
2023-03-27T08:08:21.696Z,97359.72
2023-03-27T08:09:21.517Z,97368.69
2023-03-27T08:10:21.710Z,97363.95
2023-03-27T08:11:30.195Z,97369.98
2023-03-27T08:12:22.363Z,97366.36
2023-03-27T08:13:22.768Z,97368.7
2023-03-27T08:14:22.267Z,97370.63
2023-03-27T08:15:22.361Z,97368.03
2023-03-27T08:16:22.308Z,97370.77
2023-03-27T08:17:24.850Z,97367.65
2023-03-27T08:18:22.332Z,97374.67
2023-03-27T08:19:22.478Z,97372.23
2023-03-27T08:20:23.242Z,97374.91
2023-03-27T08:21:22.499Z,97379.72
2023-03-27T08:22:22.813Z,97379.95
2023-03-27T08:23:22.486Z,97375.14
2023-03-27T08:24:22.396Z,97382.75
2023-03-27T08:25:22.894Z,97380.58
2023-03-27T08:26:22.519Z,97378.64
2023-03-27T08:27:22.732Z,97385.59
2023-03-27T08:28:22.573Z,97384.23
2023-03-27T08:29:23.255Z,97384.82
2023-03-27T08:30:22.501Z,97379.46
2023-03-27T08:31:22.846Z,97382.27
2023-03-27T08:32:22.569Z,97377.87
2023-03-27T08:33:22.845Z,97384.67
2023-03-27T08:34:22.596Z,97382.2
2023-03-27T08:35:22.613Z,97386.92
2023-03-27T08:36:22.966Z,97385.97
2023-03-27T08:37:22.668Z,97385.33
2023-03-27T08:38:26.999Z,97386.77
2023-03-27T08:39:24.168Z,97386.11
2023-03-27T08:40:26.211Z,97387.36
2023-03-27T08:41:26.279Z,97389.22
2023-03-27T08:42:32.973Z,97390.53
2023-03-27T08:43:36.116Z,97389.58
2023-03-27T08:44:29.222Z,97389.92
2023-03-27T08:45:40.910Z,97391.33
2023-03-27T08:47:38.506Z,97390.73
2023-03-27T08:49:46.463Z,97395.97
2023-03-27T08:50:46.243Z,97400.28
2023-03-27T08:51:48.884Z,97400.38
2023-03-27T08:52:46.455Z,97399.11
2023-03-27T08:53:52.046Z,97402.97
2023-03-27T08:54:51.552Z,97397.97
2023-03-27T08:55:48.316Z,97398.59
2023-03-27T08:56:48.740Z,97401.25
2023-03-27T08:57:48.574Z,97403.42
2023-03-27T08:58:48.494Z,97401.94
2023-03-27T08:59:48.735Z,97403.88
2023-03-27T09:00:53.705Z,97409.11
2023-03-27T09:06:10.714Z,97406.8
2023-03-27T09:08:10.743Z,97409.18
2023-03-27T09:09:15.758Z,97410.53
2023-03-27T09:13:18.471Z,97409.26
2023-03-27T09:14:25.636Z,97413.12
2023-03-27T09:15:20.936Z,97415.59
2023-03-27T09:16:28.375Z,97412.05
2023-03-27T09:17:23.189Z,97410.78
2023-03-27T09:18:22.317Z,97408.85
2023-03-27T09:20:33.268Z,97414.62
2023-03-27T09:24:33.608Z,97409.83
2023-03-27T09:25:37.304Z,97415.66
2023-03-27T09:26:36.725Z,97416.75
2023-03-27T09:27:34.979Z,97417.67
2023-03-27T09:28:39.770Z,97413.97
2023-03-27T09:29:38.352Z,97417.98
2023-03-27T09:30:36.041Z,97417.78
2023-03-27T09:31:42.630Z,97414.92
2023-03-27T09:32:39.366Z,97413.48
2023-03-27T09:33:38.939Z,97423.55
2023-03-27T09:34:38.978Z,97411.42
2023-03-27T09:35:39.204Z,97423.31
2023-03-27T09:36:39.044Z,97422.73
2023-03-27T09:37:39.041Z,97423.78
2023-03-27T09:38:41.417Z,97425.27
2023-03-27T09:39:41.884Z,97430.12
2023-03-27T09:42:42.837Z,97434.36
2023-03-27T09:43:45.829Z,97455.73
2023-03-27T09:44:44.081Z,97453.65
2023-03-27T09:45:44.310Z,97453.35
2023-03-27T09:46:44.411Z,97463.73
2023-03-27T09:48:48.466Z,97457.12
2023-03-27T09:49:47.855Z,97460.75
2023-03-27T09:50:46.475Z,97467.68
2023-03-27T09:51:52.074Z,97465.73
2023-03-27T09:52:48.343Z,97466.97
2023-03-27T09:54:53.595Z,97469.62
2023-03-27T09:55:56.544Z,97472.83
2023-03-27T09:57:55.126Z,97480.62
2023-03-27T09:58:53.623Z,97476.77
2023-03-27T10:00:00.796Z,97478.02
2023-03-27T10:01:11.551Z,97480.73
2023-03-27T10:01:59.679Z,97476.78
2023-03-27T10:03:03.210Z,97487.01
2023-03-27T10:04:00.919Z,97479.06
2023-03-27T10:05:02.537Z,97481.59
2023-03-27T10:06:08.144Z,97483.58
2023-03-27T10:07:06.523Z,97486.91
2023-03-27T10:11:17.273Z,97501.62
2023-03-27T10:12:20.835Z,97500
2023-03-27T10:13:26.111Z,97493.98
2023-03-27T10:14:19.828Z,97502.97
2023-03-27T10:16:21.517Z,97505.41
2023-03-27T10:18:24.768Z,97517.52
2023-03-27T10:19:25.981Z,97513.94
2023-03-27T10:20:22.844Z,97513.76
2023-03-27T10:21:31.476Z,97514.78
2023-03-27T10:22:28.941Z,97519.8
2023-03-27T10:23:30.077Z,97518.51
2023-03-27T10:24:34.760Z,97519.01
2023-03-27T10:25:36.356Z,97518.44
2023-03-27T10:26:36.631Z,97520.88
2023-03-27T10:27:34.781Z,97520.04
2023-03-27T10:28:35.088Z,97524.56
2023-03-27T10:29:34.651Z,97515.98
2023-03-27T10:30:34.775Z,97513.31
2023-03-27T10:31:36.717Z,97522.17
2023-03-27T10:32:46.251Z,97525.66
2023-03-27T10:33:39.197Z,97519.75
2023-03-27T10:34:39.024Z,97524.97
2023-03-27T10:35:40.024Z,97523.84
2023-03-27T10:36:38.277Z,97526.56
2023-03-27T10:37:40.216Z,97529.02
2023-03-27T10:38:40.638Z,97536.7
2023-03-27T10:39:38.173Z,97535.21
2023-03-27T10:40:39.335Z,97545.91
2023-03-27T10:41:38.967Z,97548.7
2023-03-27T10:42:38.126Z,97550.67
2023-03-27T10:43:41.105Z,97552.62
2023-03-27T10:44:38.551Z,97554.98
2023-03-27T10:45:43.681Z,97554.84
2023-03-27T10:46:40.961Z,97556.39
2023-03-27T10:47:45.497Z,97564.35
2023-03-27T10:49:47.900Z,97566.83
2023-03-27T10:50:49.834Z,97575.71
2023-03-27T10:51:51.302Z,97566.59
2023-03-27T10:53:56.234Z,97572.83
2023-03-27T10:56:04.698Z,97572.79
2023-03-27T10:57:10.054Z,97575.25
2023-03-27T10:58:00.008Z,97578.25
2023-03-27T10:59:01.868Z,97575.52
2023-03-27T11:00:10.274Z,97582.36
2023-03-27T11:01:05.534Z,97585.91
2023-03-27T11:02:10.759Z,97585.16
2023-03-27T11:03:09.498Z,97593.75
2023-03-27T11:05:13.579Z,97595.55
2023-03-27T11:06:14.707Z,97596.08
2023-03-27T11:07:16.439Z,97595.91
2023-03-27T11:08:16.037Z,97589.59
2023-03-27T11:09:15.758Z,97599.02
2023-03-27T11:12:21.026Z,97594.02
2023-03-27T11:17:32.223Z,97601.14
2023-03-27T11:18:37.134Z,97605.77
2023-03-27T11:20:42.685Z,97617.45
2023-03-27T11:21:45.639Z,97610.11
2023-03-27T11:22:48.060Z,97613.82
2023-03-27T11:23:55.090Z,97617.74
2023-03-27T11:24:51.926Z,97620.02
2023-03-27T11:25:50.779Z,97626.42
2023-03-27T11:26:51.199Z,97626.19
2023-03-27T11:35:12.362Z,97648.7
2023-03-27T11:37:15.631Z,97653.8
2023-03-27T11:38:15.012Z,97655
2023-03-27T11:41:20.342Z,97654.28
2023-03-27T11:42:27.784Z,97668.97
2023-03-27T11:43:24.275Z,97673.62
2023-03-27T11:44:25.143Z,97666.31
2023-03-27T11:45:24.869Z,97672.55
2023-03-27T11:56:54.893Z,97720.62
2023-03-27T11:58:03.546Z,97720.02
2023-03-27T12:04:17.974Z,97739.88
2023-03-27T12:10:29.416Z,97748.8
2023-03-27T12:11:26.217Z,97753.17
2023-03-27T12:27:06.336Z,97779.16
2023-03-27T12:35:22.117Z,97811.05
2023-03-27T12:36:20.993Z,97815.52
2023-03-27T12:37:22.526Z,97823.41
2023-03-27T12:39:27.737Z,97820.84
2023-03-27T12:40:28.564Z,97823.34
2023-03-27T12:41:25.580Z,97829.89
2023-03-27T12:43:29.996Z,97820.17
2023-03-27T12:44:30.301Z,97828.73
2023-03-27T12:45:26.584Z,97823.58
2023-03-27T12:47:29.148Z,97830.78
2023-03-27T12:48:27.847Z,97820.95
2023-03-27T12:50:32.848Z,97826.44
2023-03-27T12:52:30.955Z,97826.89
2023-03-27T12:54:35.839Z,97829.62
2023-03-27T12:55:34.275Z,97832.41
2023-03-27T12:56:34.255Z,97833.94
2023-03-27T12:58:33.896Z,97831.01
2023-03-27T12:59:40.054Z,97844.36
2023-03-27T13:00:36.414Z,97843.81
2023-03-27T13:10:14.984Z,97855.78
2023-03-27T13:15:27.794Z,97856.25
2023-03-27T13:19:38.970Z,97865.23
2023-03-27T13:26:01.655Z,97880.3
2023-03-27T13:27:06.646Z,97885.96
2023-03-27T13:29:16.194Z,97889.05
2023-03-27T13:36:26.523Z,97892.09
2023-03-27T13:39:40.984Z,97899.05
2023-03-27T13:40:36.775Z,97895.97
2023-03-27T13:43:35.038Z,97903.72
2023-03-27T13:44:41.476Z,97903.86
2023-03-27T13:45:51.857Z,97899.96
2023-03-27T13:46:43.143Z,97903.58
2023-03-27T13:56:09.435Z,97917.43
2023-03-27T14:04:29.366Z,97914.17
2023-03-27T14:07:47.694Z,97919.73
2023-03-27T14:21:12.986Z,97942.33
2023-03-27T14:25:26.118Z,97947.03
2023-03-27T14:26:22.674Z,97951.21
2023-03-27T14:27:20.773Z,97958.53
2023-03-27T14:29:24.623Z,97962.12
2023-03-27T14:30:26.185Z,97955.83
2023-03-27T14:31:23.621Z,97954.79
2023-03-27T14:32:22.488Z,97956.48
2023-03-27T14:33:22.469Z,97956.17
2023-03-27T14:34:23.185Z,97956.83
2023-03-27T14:35:27.473Z,97952.02
2023-03-27T14:36:25.152Z,97955.63
2023-03-27T14:37:25.725Z,97957.11
2023-03-27T14:38:25.192Z,97951.91
2023-03-27T14:39:25.077Z,97953.02
2023-03-27T14:40:27.340Z,97960.11
2023-03-27T14:41:23.923Z,97958.4
2023-03-27T14:42:30.436Z,97958.85
2023-03-27T14:43:29.280Z,97959.72
2023-03-27T14:44:32.071Z,97960.16
2023-03-27T14:45:33.157Z,97961.83
2023-03-27T14:46:29.811Z,97966.15
2023-03-27T14:47:30.492Z,97971.28
2023-03-27T14:48:35.285Z,97966.94
2023-03-27T14:50:35.454Z,97966.3
2023-03-27T14:51:36.021Z,97966.2
2023-03-27T14:52:35.039Z,97965.56
2023-03-27T14:53:35.813Z,97970.2
2023-03-27T14:54:44.651Z,97971.64
2023-03-27T14:55:36.479Z,97970.68
2023-03-27T14:56:38.051Z,97975.98
2023-03-27T14:57:35.471Z,97969.27
2023-03-27T14:58:35.872Z,97974.33
2023-03-27T14:59:37.429Z,97976.34
2023-03-27T15:00:36.743Z,97974.44
2023-03-27T15:01:35.584Z,97976.61
2023-03-27T15:02:35.719Z,97978.62
2023-03-27T15:03:36.791Z,97979.82
2023-03-27T15:04:40.628Z,97980.42
2023-03-27T15:06:38.646Z,97980.88
2023-03-27T15:07:38.571Z,97981.76
2023-03-27T15:08:39.196Z,97980.8
2023-03-27T15:09:38.573Z,97985.59
2023-03-27T15:10:38.582Z,97986.53
2023-03-27T15:11:38.920Z,97986.51
2023-03-27T15:12:42.778Z,97984.64
2023-03-27T15:13:39.474Z,97992.19
2023-03-27T15:14:40.155Z,97989.01
2023-03-27T15:15:41.102Z,97990.98
2023-03-27T15:16:40.331Z,97988.58
2023-03-27T15:17:39.682Z,97984.68
2023-03-27T15:19:47.272Z,97987.27
2023-03-27T15:20:44.595Z,97988.95
2023-03-27T15:21:53.210Z,97993.92
2023-03-27T15:22:48.912Z,97994.53
2023-03-27T15:26:55.011Z,98006.59
2023-03-27T15:27:54.798Z,98009.06
2023-03-27T15:29:57.893Z,98007.01
2023-03-27T15:30:57.565Z,98007.92
2023-03-27T15:31:56.453Z,98011.49
2023-03-27T15:32:56.622Z,98012.19
2023-03-27T15:34:58.633Z,98019.72
2023-03-27T15:35:56.636Z,98017.66
2023-03-27T15:36:59.895Z,98019.61